sensor_id;sensor_type;location;lat;lon;timestamp;P1;durP1;ratioP1;P2;durP2;ratioP2
21564;SDS011;10943;48.738;9.320;2022-07-29T00:01:52;14.13;;;11.50;;
21564;SDS011;10943;48.738;9.320;2022-07-29T00:04:19;13.93;;;10.98;;
21564;SDS011;10943;48.738;9.320;2022-07-29T00:06:49;16.45;;;11.15;;
21564;SDS011;10943;48.738;9.320;2022-07-29T00:09:19;14.88;;;11.18;;
21564;SDS011;10943;48.738;9.320;2022-07-29T00:11:46;13.75;;;10.40;;
21564;SDS011;10943;48.738;9.320;2022-07-29T00:14:16;11.90;;;10.23;;
21564;SDS011;10943;48.738;9.320;2022-07-29T00:16:44;11.57;;;9.65;;
21564;SDS011;10943;48.738;9.320;2022-07-29T00:19:12;11.93;;;9.10;;
21564;SDS011;10943;48.738;9.320;2022-07-29T00:21:39;12.60;;;10.57;;
21564;SDS011;10943;48.738;9.320;2022-07-29T00:24:06;12.05;;;10.65;;
21564;SDS011;10943;48.738;9.320;2022-07-29T00:26:34;12.23;;;11.02;;
21564;SDS011;10943;48.738;9.320;2022-07-29T00:29:02;15.43;;;10.68;;
21564;SDS011;10943;48.738;9.320;2022-07-29T00:31:52;14.10;;;9.82;;
21564;SDS011;10943;48.738;9.320;2022-07-29T00:34:19;11.15;;;9.70;;
21564;SDS011;10943;48.738;9.320;2022-07-29T00:37:07;13.57;;;10.38;;
21564;SDS011;10943;48.738;9.320;2022-07-29T00:39:34;11.23;;;10.02;;
21564;SDS011;10943;48.738;9.320;2022-07-29T00:42:02;11.70;;;10.32;;
21564;SDS011;10943;48.738;9.320;2022-07-29T00:44:40;12.23;;;10.25;;
21564;SDS011;10943;48.738;9.320;2022-07-29T00:47:09;13.10;;;9.85;;
21564;SDS011;10943;48.738;9.320;2022-07-29T00:49:39;10.68;;;9.57;;
21564;SDS011;10943;48.738;9.320;2022-07-29T00:52:08;14.32;;;10.40;;
21564;SDS011;10943;48.738;9.320;2022-07-29T00:54:38;12.55;;;10.30;;
21564;SDS011;10943;48.738;9.320;2022-07-29T00:57:13;14.55;;;9.63;;
21564;SDS011;10943;48.738;9.320;2022-07-29T00:59:43;11.05;;;9.95;;
21564;SDS011;10943;48.738;9.320;2022-07-29T01:02:10;13.32;;;10.20;;
21564;SDS011;10943;48.738;9.320;2022-07-29T01:04:38;11.98;;;9.95;;
21564;SDS011;10943;48.738;9.320;2022-07-29T01:07:06;12.90;;;9.77;;
21564;SDS011;10943;48.738;9.320;2022-07-29T01:09:34;11.75;;;9.95;;
21564;SDS011;10943;48.738;9.320;2022-07-29T01:12:13;11.23;;;9.77;;
21564;SDS011;10943;48.738;9.320;2022-07-29T01:14:46;13.90;;;10.20;;
21564;SDS011;10943;48.738;9.320;2022-07-29T01:17:21;14.77;;;11.20;;
21564;SDS011;10943;48.738;9.320;2022-07-29T01:20:01;13.30;;;11.90;;
21564;SDS011;10943;48.738;9.320;2022-07-29T01:29:54;11.80;;;9.65;;
21564;SDS011;10943;48.738;9.320;2022-07-29T01:47:31;14.52;;;10.50;;
21564;SDS011;10943;48.738;9.320;2022-07-29T02:20:06;12.30;;;11.00;;
21564;SDS011;10943;48.738;9.320;2022-07-29T02:22:44;13.45;;;12.02;;
21564;SDS011;10943;48.738;9.320;2022-07-29T02:25:18;12.23;;;11.00;;
21564;SDS011;10943;48.738;9.320;2022-07-29T02:27:51;12.48;;;11.20;;
21564;SDS011;10943;48.738;9.320;2022-07-29T02:30:22;12.48;;;10.93;;
21564;SDS011;10943;48.738;9.320;2022-07-29T02:32:52;11.93;;;10.55;;
21564;SDS011;10943;48.738;9.320;2022-07-29T02:35:24;11.68;;;10.50;;
21564;SDS011;10943;48.738;9.320;2022-07-29T02:37:52;12.15;;;10.43;;
21564;SDS011;10943;48.738;9.320;2022-07-29T02:40:39;12.65;;;10.68;;
21564;SDS011;10943;48.738;9.320;2022-07-29T02:43:12;12.13;;;10.45;;
21564;SDS011;10943;48.738;9.320;2022-07-29T02:45:43;12.65;;;10.65;;
21564;SDS011;10943;48.738;9.320;2022-07-29T02:48:22;11.13;;;10.02;;
21564;SDS011;10943;48.738;9.320;2022-07-29T02:51:13;14.15;;;10.20;;
21564;SDS011;10943;48.738;9.320;2022-07-29T02:54:24;11.45;;;10.35;;
21564;SDS011;10943;48.738;9.320;2022-07-29T02:57:55;12.43;;;10.15;;
21564;SDS011;10943;48.738;9.320;2022-07-29T03:00:34;13.38;;;10.20;;
21564;SDS011;10943;48.738;9.320;2022-07-29T03:03:07;12.55;;;9.90;;
21564;SDS011;10943;48.738;9.320;2022-07-29T03:05:41;12.25;;;10.05;;
21564;SDS011;10943;48.738;9.320;2022-07-29T03:08:10;11.30;;;10.10;;
21564;SDS011;10943;48.738;9.320;2022-07-29T03:10:39;11.98;;;10.18;;
21564;SDS011;10943;48.738;9.320;2022-07-29T03:13:11;11.27;;;9.80;;
21564;SDS011;10943;48.738;9.320;2022-07-29T03:15:42;12.32;;;9.68;;
21564;SDS011;10943;48.738;9.320;2022-07-29T03:18:14;12.15;;;9.90;;
21564;SDS011;10943;48.738;9.320;2022-07-29T03:20:42;10.32;;;9.13;;
21564;SDS011;10943;48.738;9.320;2022-07-29T03:23:11;10.68;;;9.50;;
21564;SDS011;10943;48.738;9.320;2022-07-29T03:25:46;10.65;;;9.38;;
21564;SDS011;10943;48.738;9.320;2022-07-29T03:28:13;12.95;;;10.75;;
21564;SDS011;10943;48.738;9.320;2022-07-29T03:30:42;12.32;;;9.57;;
21564;SDS011;10943;48.738;9.320;2022-07-29T03:33:13;13.55;;;9.65;;
21564;SDS011;10943;48.738;9.320;2022-07-29T03:35:40;13.27;;;10.30;;
21564;SDS011;10943;48.738;9.320;2022-07-29T03:38:11;13.05;;;10.70;;
21564;SDS011;10943;48.738;9.320;2022-07-29T03:40:58;12.57;;;10.50;;
21564;SDS011;10943;48.738;9.320;2022-07-29T03:43:34;12.52;;;10.10;;
21564;SDS011;10943;48.738;9.320;2022-07-29T03:46:15;11.20;;;10.13;;
21564;SDS011;10943;48.738;9.320;2022-07-29T03:48:45;11.98;;;10.75;;
21564;SDS011;10943;48.738;9.320;2022-07-29T03:51:17;12.27;;;10.43;;
21564;SDS011;10943;48.738;9.320;2022-07-29T03:53:58;13.85;;;10.90;;
21564;SDS011;10943;48.738;9.320;2022-07-29T03:56:37;11.63;;;10.40;;
21564;SDS011;10943;48.738;9.320;2022-07-29T03:59:11;11.52;;;10.32;;
21564;SDS011;10943;48.738;9.320;2022-07-29T04:01:43;12.00;;;10.80;;
21564;SDS011;10943;48.738;9.320;2022-07-29T04:04:15;11.80;;;10.48;;
21564;SDS011;10943;48.738;9.320;2022-07-29T04:06:45;11.73;;;10.60;;
21564;SDS011;10943;48.738;9.320;2022-07-29T04:09:16;14.80;;;10.57;;
21564;SDS011;10943;48.738;9.320;2022-07-29T04:11:43;11.98;;;10.77;;
21564;SDS011;10943;48.738;9.320;2022-07-29T04:14:32;13.32;;;11.00;;
21564;SDS011;10943;48.738;9.320;2022-07-29T04:17:02;13.25;;;9.63;;
21564;SDS011;10943;48.738;9.320;2022-07-29T04:19:42;10.70;;;9.40;;
21564;SDS011;10943;48.738;9.320;2022-07-29T04:22:13;12.30;;;9.50;;
21564;SDS011;10943;48.738;9.320;2022-07-29T04:24:41;11.23;;;10.13;;
21564;SDS011;10943;48.738;9.320;2022-07-29T04:27:13;12.23;;;9.40;;
21564;SDS011;10943;48.738;9.320;2022-07-29T04:29:43;10.10;;;9.10;;
21564;SDS011;10943;48.738;9.320;2022-07-29T04:32:23;9.68;;;8.20;;
21564;SDS011;10943;48.738;9.320;2022-07-29T04:34:52;12.15;;;8.45;;
21564;SDS011;10943;48.738;9.320;2022-07-29T04:37:20;11.70;;;9.77;;
21564;SDS011;10943;48.738;9.320;2022-07-29T04:39:55;10.57;;;8.52;;
21564;SDS011;10943;48.738;9.320;2022-07-29T04:42:25;10.73;;;9.10;;
21564;SDS011;10943;48.738;9.320;2022-07-29T04:44:57;11.75;;;8.52;;
21564;SDS011;10943;48.738;9.320;2022-07-29T04:47:27;11.80;;;7.70;;
21564;SDS011;10943;48.738;9.320;2022-07-29T04:49:54;9.57;;;7.43;;
21564;SDS011;10943;48.738;9.320;2022-07-29T04:52:22;7.25;;;6.10;;
21564;SDS011;10943;48.738;9.320;2022-07-29T04:54:50;7.97;;;6.05;;
21564;SDS011;10943;48.738;9.320;2022-07-29T04:57:18;8.60;;;6.03;;
21564;SDS011;10943;48.738;9.320;2022-07-29T04:59:45;7.25;;;6.03;;
21564;SDS011;10943;48.738;9.320;2022-07-29T05:02:16;8.40;;;6.25;;
21564;SDS011;10943;48.738;9.320;2022-07-29T05:04:46;8.88;;;6.20;;
21564;SDS011;10943;48.738;9.320;2022-07-29T05:07:14;8.05;;;6.57;;
21564;SDS011;10943;48.738;9.320;2022-07-29T05:09:42;10.27;;;7.30;;
21564;SDS011;10943;48.738;9.320;2022-07-29T05:12:10;7.82;;;5.68;;
21564;SDS011;10943;48.738;9.320;2022-07-29T05:14:38;10.30;;;5.82;;
21564;SDS011;10943;48.738;9.320;2022-07-29T05:17:06;8.52;;;6.15;;
21564;SDS011;10943;48.738;9.320;2022-07-29T05:19:34;8.45;;;5.05;;
21564;SDS011;10943;48.738;9.320;2022-07-29T05:22:11;10.40;;;5.07;;
21564;SDS011;10943;48.738;9.320;2022-07-29T05:24:42;6.85;;;4.53;;
21564;SDS011;10943;48.738;9.320;2022-07-29T05:27:13;8.35;;;4.25;;
21564;SDS011;10943;48.738;9.320;2022-07-29T05:29:50;7.00;;;4.20;;
21564;SDS011;10943;48.738;9.320;2022-07-29T05:32:21;7.80;;;4.18;;
21564;SDS011;10943;48.738;9.320;2022-07-29T05:34:58;6.55;;;3.88;;
21564;SDS011;10943;48.738;9.320;2022-07-29T05:37:31;6.15;;;3.70;;
21564;SDS011;10943;48.738;9.320;2022-07-29T05:40:10;5.57;;;3.45;;
21564;SDS011;10943;48.738;9.320;2022-07-29T05:42:41;6.43;;;3.72;;
21564;SDS011;10943;48.738;9.320;2022-07-29T05:45:18;10.07;;;4.00;;
21564;SDS011;10943;48.738;9.320;2022-07-29T05:47:53;7.18;;;4.13;;
21564;SDS011;10943;48.738;9.320;2022-07-29T05:50:21;8.77;;;4.40;;
21564;SDS011;10943;48.738;9.320;2022-07-29T05:52:54;6.68;;;4.30;;
21564;SDS011;10943;48.738;9.320;2022-07-29T05:55:30;7.85;;;4.50;;
21564;SDS011;10943;48.738;9.320;2022-07-29T05:58:11;6.07;;;3.53;;
21564;SDS011;10943;48.738;9.320;2022-07-29T06:00:51;5.97;;;4.07;;
21564;SDS011;10943;48.738;9.320;2022-07-29T06:03:27;6.13;;;3.25;;
21564;SDS011;10943;48.738;9.320;2022-07-29T06:05:55;7.93;;;4.15;;
21564;SDS011;10943;48.738;9.320;2022-07-29T06:08:23;10.35;;;3.90;;
21564;SDS011;10943;48.738;9.320;2022-07-29T06:10:56;11.23;;;3.92;;
21564;SDS011;10943;48.738;9.320;2022-07-29T06:13:26;8.38;;;4.30;;
21564;SDS011;10943;48.738;9.320;2022-07-29T06:16:00;9.88;;;4.00;;
21564;SDS011;10943;48.738;9.320;2022-07-29T06:18:34;8.30;;;5.10;;
21564;SDS011;10943;48.738;9.320;2022-07-29T06:21:06;6.10;;;4.07;;
21564;SDS011;10943;48.738;9.320;2022-07-29T06:23:44;9.77;;;4.25;;
21564;SDS011;10943;48.738;9.320;2022-07-29T06:26:13;5.85;;;3.30;;
21564;SDS011;10943;48.738;9.320;2022-07-29T06:28:42;6.18;;;3.38;;
21564;SDS011;10943;48.738;9.320;2022-07-29T06:31:10;5.18;;;3.20;;
21564;SDS011;10943;48.738;9.320;2022-07-29T06:33:40;5.68;;;3.03;;
21564;SDS011;10943;48.738;9.320;2022-07-29T06:36:11;6.70;;;3.15;;
21564;SDS011;10943;48.738;9.320;2022-07-29T06:38:39;6.88;;;3.20;;
21564;SDS011;10943;48.738;9.320;2022-07-29T06:41:16;7.82;;;3.28;;
21564;SDS011;10943;48.738;9.320;2022-07-29T06:43:44;7.13;;;3.35;;
21564;SDS011;10943;48.738;9.320;2022-07-29T06:46:21;8.35;;;3.28;;
21564;SDS011;10943;48.738;9.320;2022-07-29T06:48:50;5.63;;;3.10;;
21564;SDS011;10943;48.738;9.320;2022-07-29T06:51:21;7.43;;;3.17;;
21564;SDS011;10943;48.738;9.320;2022-07-29T06:53:50;6.40;;;3.22;;
21564;SDS011;10943;48.738;9.320;2022-07-29T06:56:33;6.05;;;2.80;;
21564;SDS011;10943;48.738;9.320;2022-07-29T06:59:08;4.32;;;2.50;;
21564;SDS011;10943;48.738;9.320;2022-07-29T07:01:40;5.20;;;2.70;;
21564;SDS011;10943;48.738;9.320;2022-07-29T07:04:25;5.93;;;2.85;;
21564;SDS011;10943;48.738;9.320;2022-07-29T07:06:53;6.38;;;2.63;;
21564;SDS011;10943;48.738;9.320;2022-07-29T07:09:28;5.53;;;2.60;;
21564;SDS011;10943;48.738;9.320;2022-07-29T07:12:09;5.68;;;3.05;;
21564;SDS011;10943;48.738;9.320;2022-07-29T07:14:43;6.82;;;3.45;;
21564;SDS011;10943;48.738;9.320;2022-07-29T07:17:11;3.83;;;2.70;;
21564;SDS011;10943;48.738;9.320;2022-07-29T07:19:44;5.07;;;2.97;;
21564;SDS011;10943;48.738;9.320;2022-07-29T07:22:22;6.15;;;3.15;;
21564;SDS011;10943;48.738;9.320;2022-07-29T07:27:44;4.63;;;2.83;;
21564;SDS011;10943;48.738;9.320;2022-07-29T07:30:12;7.18;;;3.25;;
21564;SDS011;10943;48.738;9.320;2022-07-29T07:32:40;6.07;;;3.40;;
21564;SDS011;10943;48.738;9.320;2022-07-29T07:35:08;4.68;;;2.97;;
21564;SDS011;10943;48.738;9.320;2022-07-29T07:37:37;6.10;;;3.38;;
21564;SDS011;10943;48.738;9.320;2022-07-29T07:40:11;4.65;;;2.92;;
21564;SDS011;10943;48.738;9.320;2022-07-29T07:42:44;7.50;;;2.70;;
21564;SDS011;10943;48.738;9.320;2022-07-29T07:45:11;6.40;;;3.67;;
21564;SDS011;10943;48.738;9.320;2022-07-29T07:47:42;7.47;;;3.53;;
21564;SDS011;10943;48.738;9.320;2022-07-29T07:50:13;6.13;;;3.63;;
21564;SDS011;10943;48.738;9.320;2022-07-29T07:52:51;5.32;;;2.97;;
21564;SDS011;10943;48.738;9.320;2022-07-29T07:55:24;5.20;;;2.97;;
21564;SDS011;10943;48.738;9.320;2022-07-29T07:57:53;6.07;;;2.80;;
21564;SDS011;10943;48.738;9.320;2022-07-29T08:00:22;5.97;;;2.55;;
21564;SDS011;10943;48.738;9.320;2022-07-29T08:02:50;5.95;;;3.15;;
21564;SDS011;10943;48.738;9.320;2022-07-29T08:05:17;5.63;;;2.22;;
21564;SDS011;10943;48.738;9.320;2022-07-29T08:07:45;6.88;;;2.70;;
21564;SDS011;10943;48.738;9.320;2022-07-29T08:10:14;7.43;;;2.95;;
21564;SDS011;10943;48.738;9.320;2022-07-29T08:13:03;5.93;;;2.70;;
21564;SDS011;10943;48.738;9.320;2022-07-29T08:15:38;4.80;;;2.20;;
21564;SDS011;10943;48.738;9.320;2022-07-29T08:18:07;4.22;;;2.75;;
21564;SDS011;10943;48.738;9.320;2022-07-29T08:20:35;8.65;;;3.00;;
21564;SDS011;10943;48.738;9.320;2022-07-29T08:23:06;5.07;;;2.33;;
21564;SDS011;10943;48.738;9.320;2022-07-29T08:25:37;4.47;;;2.55;;
21564;SDS011;10943;48.738;9.320;2022-07-29T08:28:09;5.40;;;2.55;;
21564;SDS011;10943;48.738;9.320;2022-07-29T08:30:36;4.78;;;2.50;;
21564;SDS011;10943;48.738;9.320;2022-07-29T08:33:04;5.25;;;2.40;;
21564;SDS011;10943;48.738;9.320;2022-07-29T08:35:31;5.97;;;3.13;;
21564;SDS011;10943;48.738;9.320;2022-07-29T08:38:02;6.10;;;3.00;;
21564;SDS011;10943;48.738;9.320;2022-07-29T08:40:29;5.15;;;2.30;;
21564;SDS011;10943;48.738;9.320;2022-07-29T08:43:06;5.85;;;2.50;;
21564;SDS011;10943;48.738;9.320;2022-07-29T08:45:45;4.72;;;2.75;;
21564;SDS011;10943;48.738;9.320;2022-07-29T08:48:20;4.80;;;2.45;;
21564;SDS011;10943;48.738;9.320;2022-07-29T08:50:55;6.18;;;2.50;;
21564;SDS011;10943;48.738;9.320;2022-07-29T08:53:24;3.88;;;2.40;;
21564;SDS011;10943;48.738;9.320;2022-07-29T08:55:53;6.22;;;2.90;;
21564;SDS011;10943;48.738;9.320;2022-07-29T08:58:31;5.32;;;2.30;;
21564;SDS011;10943;48.738;9.320;2022-07-29T09:01:03;6.28;;;2.97;;
21564;SDS011;10943;48.738;9.320;2022-07-29T09:03:40;5.03;;;2.35;;
21564;SDS011;10943;48.738;9.320;2022-07-29T09:06:17;6.45;;;2.55;;
21564;SDS011;10943;48.738;9.320;2022-07-29T09:08:48;5.00;;;2.00;;
21564;SDS011;10943;48.738;9.320;2022-07-29T09:11:18;5.55;;;2.35;;
21564;SDS011;10943;48.738;9.320;2022-07-29T09:13:46;5.50;;;2.03;;
21564;SDS011;10943;48.738;9.320;2022-07-29T09:16:15;6.50;;;2.65;;
21564;SDS011;10943;48.738;9.320;2022-07-29T09:19:03;4.78;;;2.20;;
21564;SDS011;10943;48.738;9.320;2022-07-29T09:21:58;4.28;;;2.10;;
21564;SDS011;10943;48.738;9.320;2022-07-29T09:24:39;6.90;;;2.80;;
21564;SDS011;10943;48.738;9.320;2022-07-29T09:27:23;4.65;;;2.58;;
21564;SDS011;10943;48.738;9.320;2022-07-29T09:29:57;4.57;;;2.10;;
21564;SDS011;10943;48.738;9.320;2022-07-29T09:32:55;5.30;;;2.22;;
21564;SDS011;10943;48.738;9.320;2022-07-29T09:35:29;6.80;;;2.67;;
21564;SDS011;10943;48.738;9.320;2022-07-29T09:37:57;5.35;;;2.58;;
21564;SDS011;10943;48.738;9.320;2022-07-29T09:40:43;5.88;;;2.60;;
21564;SDS011;10943;48.738;9.320;2022-07-29T09:43:32;4.72;;;2.30;;
21564;SDS011;10943;48.738;9.320;2022-07-29T09:46:10;5.95;;;2.35;;
21564;SDS011;10943;48.738;9.320;2022-07-29T09:48:39;5.68;;;2.42;;
21564;SDS011;10943;48.738;9.320;2022-07-29T09:51:17;5.60;;;2.60;;
21564;SDS011;10943;48.738;9.320;2022-07-29T09:53:59;5.30;;;2.70;;
21564;SDS011;10943;48.738;9.320;2022-07-29T09:56:41;5.13;;;2.25;;
21564;SDS011;10943;48.738;9.320;2022-07-29T09:59:13;5.82;;;2.80;;
21564;SDS011;10943;48.738;9.320;2022-07-29T10:01:54;5.13;;;2.80;;
21564;SDS011;10943;48.738;9.320;2022-07-29T10:04:23;4.80;;;2.90;;
21564;SDS011;10943;48.738;9.320;2022-07-29T10:07:06;5.55;;;2.58;;
21564;SDS011;10943;48.738;9.320;2022-07-29T10:09:35;5.28;;;2.90;;
21564;SDS011;10943;48.738;9.320;2022-07-29T10:14:35;6.10;;;2.40;;
21564;SDS011;10943;48.738;9.320;2022-07-29T10:17:06;6.20;;;2.33;;
21564;SDS011;10943;48.738;9.320;2022-07-29T10:19:37;4.57;;;2.65;;
21564;SDS011;10943;48.738;9.320;2022-07-29T10:22:06;4.40;;;2.58;;
21564;SDS011;10943;48.738;9.320;2022-07-29T10:24:38;6.88;;;2.83;;
21564;SDS011;10943;48.738;9.320;2022-07-29T10:27:12;5.43;;;2.78;;
21564;SDS011;10943;48.738;9.320;2022-07-29T10:29:54;4.47;;;2.78;;
21564;SDS011;10943;48.738;9.320;2022-07-29T10:32:57;5.10;;;2.70;;
21564;SDS011;10943;48.738;9.320;2022-07-29T10:43:31;7.03;;;2.92;;
21564;SDS011;10943;48.738;9.320;2022-07-29T10:46:40;5.18;;;2.83;;
21564;SDS011;10943;48.738;9.320;2022-07-29T10:52:55;6.65;;;3.10;;
21564;SDS011;10943;48.738;9.320;2022-07-29T10:55:54;5.70;;;2.88;;
21564;SDS011;10943;48.738;9.320;2022-07-29T11:06:24;6.32;;;3.30;;
21564;SDS011;10943;48.738;9.320;2022-07-29T11:09:29;6.03;;;3.22;;
21564;SDS011;10943;48.738;9.320;2022-07-29T11:12:04;5.22;;;2.72;;
21564;SDS011;10943;48.738;9.320;2022-07-29T11:15:05;5.70;;;3.10;;
21564;SDS011;10943;48.738;9.320;2022-07-29T11:31:11;10.48;;;3.10;;
21564;SDS011;10943;48.738;9.320;2022-07-29T11:34:44;9.25;;;3.50;;
21564;SDS011;10943;48.738;9.320;2022-07-29T11:37:15;6.45;;;2.53;;
21564;SDS011;10943;48.738;9.320;2022-07-29T11:48:05;10.55;;;5.35;;
21564;SDS011;10943;48.738;9.320;2022-07-29T11:50:55;9.13;;;5.78;;
21564;SDS011;10943;48.738;9.320;2022-07-29T11:53:24;10.15;;;5.40;;
21564;SDS011;10943;48.738;9.320;2022-07-29T11:55:59;12.68;;;5.28;;
21564;SDS011;10943;48.738;9.320;2022-07-29T11:58:29;12.05;;;5.43;;
21564;SDS011;10943;48.738;9.320;2022-07-29T12:00:58;10.57;;;5.38;;
21564;SDS011;10943;48.738;9.320;2022-07-29T12:03:44;15.50;;;6.30;;
21564;SDS011;10943;48.738;9.320;2022-07-29T12:06:14;12.30;;;6.13;;
21564;SDS011;10943;48.738;9.320;2022-07-29T12:08:45;14.82;;;5.82;;
21564;SDS011;10943;48.738;9.320;2022-07-29T12:11:40;14.43;;;5.05;;
21564;SDS011;10943;48.738;9.320;2022-07-29T12:14:29;9.75;;;5.18;;
21564;SDS011;10943;48.738;9.320;2022-07-29T12:17:03;9.43;;;5.85;;
21564;SDS011;10943;48.738;9.320;2022-07-29T12:19:43;11.00;;;5.25;;
21564;SDS011;10943;48.738;9.320;2022-07-29T12:22:24;11.55;;;6.43;;
21564;SDS011;10943;48.738;9.320;2022-07-29T12:25:13;13.55;;;6.72;;
21564;SDS011;10943;48.738;9.320;2022-07-29T12:27:59;8.65;;;6.53;;
21564;SDS011;10943;48.738;9.320;2022-07-29T12:30:41;18.23;;;8.02;;
21564;SDS011;10943;48.738;9.320;2022-07-29T12:36:00;33.88;;;14.43;;
21564;SDS011;10943;48.738;9.320;2022-07-29T12:38:43;15.98;;;7.93;;
21564;SDS011;10943;48.738;9.320;2022-07-29T12:41:19;14.07;;;7.80;;
21564;SDS011;10943;48.738;9.320;2022-07-29T12:43:53;15.35;;;7.75;;
21564;SDS011;10943;48.738;9.320;2022-07-29T12:46:27;13.75;;;7.97;;
21564;SDS011;10943;48.738;9.320;2022-07-29T12:49:06;13.15;;;7.18;;
21564;SDS011;10943;48.738;9.320;2022-07-29T12:51:38;11.07;;;6.10;;
21564;SDS011;10943;48.738;9.320;2022-07-29T12:54:14;11.52;;;6.70;;
21564;SDS011;10943;48.738;9.320;2022-07-29T12:57:05;11.27;;;6.72;;
21564;SDS011;10943;48.738;9.320;2022-07-29T13:00:00;12.98;;;6.30;;
21564;SDS011;10943;48.738;9.320;2022-07-29T13:02:41;8.95;;;6.15;;
21564;SDS011;10943;48.738;9.320;2022-07-29T13:05:57;12.77;;;6.57;;
21564;SDS011;10943;48.738;9.320;2022-07-29T13:08:27;10.48;;;6.90;;
21564;SDS011;10943;48.738;9.320;2022-07-29T13:14:53;13.25;;;8.18;;
21564;SDS011;10943;48.738;9.320;2022-07-29T13:21:11;11.68;;;6.82;;
21564;SDS011;10943;48.738;9.320;2022-07-29T13:23:59;15.65;;;8.13;;
21564;SDS011;10943;48.738;9.320;2022-07-29T13:26:35;13.38;;;7.95;;
21564;SDS011;10943;48.738;9.320;2022-07-29T13:29:12;14.60;;;8.35;;
21564;SDS011;10943;48.738;9.320;2022-07-29T13:31:43;15.13;;;8.98;;
21564;SDS011;10943;48.738;9.320;2022-07-29T13:41:42;24.00;;;11.50;;
21564;SDS011;10943;48.738;9.320;2022-07-29T13:47:56;22.95;;;12.18;;
21564;SDS011;10943;48.738;9.320;2022-07-29T13:54:10;37.50;;;15.02;;
21564;SDS011;10943;48.738;9.320;2022-07-29T13:56:39;18.02;;;13.52;;
21564;SDS011;10943;48.738;9.320;2022-07-29T14:02:50;14.70;;;11.20;;
21564;SDS011;10943;48.738;9.320;2022-07-29T14:05:17;17.55;;;10.38;;
21564;SDS011;10943;48.738;9.320;2022-07-29T14:07:45;19.38;;;11.85;;
21564;SDS011;10943;48.738;9.320;2022-07-29T14:10:12;21.95;;;12.43;;
21564;SDS011;10943;48.738;9.320;2022-07-29T14:12:45;16.73;;;11.35;;
21564;SDS011;10943;48.738;9.320;2022-07-29T14:15:12;16.42;;;10.20;;
21564;SDS011;10943;48.738;9.320;2022-07-29T14:17:43;19.00;;;13.35;;
21564;SDS011;10943;48.738;9.320;2022-07-29T14:20:11;16.90;;;12.95;;
21564;SDS011;10943;48.738;9.320;2022-07-29T14:22:38;21.33;;;14.10;;
21564;SDS011;10943;48.738;9.320;2022-07-29T14:25:10;19.02;;;11.50;;
21564;SDS011;10943;48.738;9.320;2022-07-29T14:27:40;14.45;;;10.40;;
21564;SDS011;10943;48.738;9.320;2022-07-29T14:30:11;13.80;;;10.93;;
21564;SDS011;10943;48.738;9.320;2022-07-29T14:32:42;11.90;;;8.98;;
21564;SDS011;10943;48.738;9.320;2022-07-29T14:35:09;14.00;;;8.55;;
21564;SDS011;10943;48.738;9.320;2022-07-29T14:37:38;9.07;;;7.72;;
21564;SDS011;10943;48.738;9.320;2022-07-29T14:40:06;11.85;;;6.78;;
21564;SDS011;10943;48.738;9.320;2022-07-29T14:42:36;10.95;;;7.40;;
21564;SDS011;10943;48.738;9.320;2022-07-29T14:45:04;8.55;;;6.50;;
21564;SDS011;10943;48.738;9.320;2022-07-29T14:47:38;9.05;;;7.00;;
21564;SDS011;10943;48.738;9.320;2022-07-29T14:50:08;10.13;;;7.82;;
21564;SDS011;10943;48.738;9.320;2022-07-29T14:52:40;9.95;;;6.82;;
21564;SDS011;10943;48.738;9.320;2022-07-29T14:55:08;11.80;;;7.50;;
21564;SDS011;10943;48.738;9.320;2022-07-29T14:57:49;11.73;;;7.85;;
21564;SDS011;10943;48.738;9.320;2022-07-29T15:00:24;14.07;;;7.72;;
21564;SDS011;10943;48.738;9.320;2022-07-29T15:02:53;10.02;;;7.75;;
21564;SDS011;10943;48.738;9.320;2022-07-29T15:05:28;10.23;;;7.90;;
21564;SDS011;10943;48.738;9.320;2022-07-29T15:07:59;12.20;;;7.97;;
21564;SDS011;10943;48.738;9.320;2022-07-29T15:10:28;11.10;;;7.70;;
21564;SDS011;10943;48.738;9.320;2022-07-29T15:12:55;11.05;;;8.20;;
21564;SDS011;10943;48.738;9.320;2022-07-29T15:15:23;12.57;;;8.65;;
21564;SDS011;10943;48.738;9.320;2022-07-29T15:17:56;10.98;;;8.48;;
21564;SDS011;10943;48.738;9.320;2022-07-29T15:20:27;12.02;;;7.80;;
21564;SDS011;10943;48.738;9.320;2022-07-29T15:23:02;11.32;;;7.85;;
21564;SDS011;10943;48.738;9.320;2022-07-29T15:25:30;10.75;;;8.13;;
21564;SDS011;10943;48.738;9.320;2022-07-29T15:27:59;13.35;;;8.73;;
21564;SDS011;10943;48.738;9.320;2022-07-29T15:30:29;12.85;;;7.70;;
21564;SDS011;10943;48.738;9.320;2022-07-29T15:33:01;9.52;;;7.88;;
21564;SDS011;10943;48.738;9.320;2022-07-29T15:35:32;10.60;;;8.30;;
21564;SDS011;10943;48.738;9.320;2022-07-29T15:41:44;12.10;;;7.78;;
21564;SDS011;10943;48.738;9.320;2022-07-29T15:44:14;10.68;;;8.27;;
21564;SDS011;10943;48.738;9.320;2022-07-29T15:46:42;11.43;;;7.95;;
21564;SDS011;10943;48.738;9.320;2022-07-29T15:49:38;8.80;;;7.32;;
21564;SDS011;10943;48.738;9.320;2022-07-29T15:52:15;10.68;;;7.07;;
21564;SDS011;10943;48.738;9.320;2022-07-29T15:54:52;8.65;;;7.18;;
21564;SDS011;10943;48.738;9.320;2022-07-29T15:57:23;10.55;;;7.10;;
21564;SDS011;10943;48.738;9.320;2022-07-29T15:59:51;8.98;;;6.28;;
21564;SDS011;10943;48.738;9.320;2022-07-29T16:02:19;9.30;;;6.97;;
21564;SDS011;10943;48.738;9.320;2022-07-29T16:04:53;9.68;;;6.63;;
21564;SDS011;10943;48.738;9.320;2022-07-29T16:07:20;13.07;;;6.70;;
21564;SDS011;10943;48.738;9.320;2022-07-29T16:09:47;11.25;;;6.97;;
21564;SDS011;10943;48.738;9.320;2022-07-29T16:12:18;9.57;;;6.38;;
21564;SDS011;10943;48.738;9.320;2022-07-29T16:14:48;12.32;;;5.72;;
21564;SDS011;10943;48.738;9.320;2022-07-29T16:17:17;6.93;;;5.13;;
21564;SDS011;10943;48.738;9.320;2022-07-29T16:19:51;8.73;;;5.75;;
21564;SDS011;10943;48.738;9.320;2022-07-29T16:22:19;8.60;;;6.05;;
21564;SDS011;10943;48.738;9.320;2022-07-29T16:24:49;10.18;;;5.50;;
21564;SDS011;10943;48.738;9.320;2022-07-29T16:27:22;7.57;;;5.57;;
21564;SDS011;10943;48.738;9.320;2022-07-29T16:30:01;9.20;;;5.38;;
21564;SDS011;10943;48.738;9.320;2022-07-29T16:32:30;8.55;;;5.07;;
21564;SDS011;10943;48.738;9.320;2022-07-29T16:34:57;7.20;;;4.90;;
21564;SDS011;10943;48.738;9.320;2022-07-29T16:37:27;7.18;;;5.25;;
21564;SDS011;10943;48.738;9.320;2022-07-29T16:39:59;6.50;;;4.78;;
21564;SDS011;10943;48.738;9.320;2022-07-29T16:42:27;6.65;;;4.72;;
21564;SDS011;10943;48.738;9.320;2022-07-29T16:45:12;7.13;;;5.03;;
21564;SDS011;10943;48.738;9.320;2022-07-29T16:47:43;6.72;;;4.97;;
21564;SDS011;10943;48.738;9.320;2022-07-29T16:50:14;6.78;;;5.00;;
21564;SDS011;10943;48.738;9.320;2022-07-29T16:52:42;5.82;;;4.95;;
21564;SDS011;10943;48.738;9.320;2022-07-29T16:55:09;9.95;;;5.50;;
21564;SDS011;10943;48.738;9.320;2022-07-29T16:57:38;6.95;;;5.15;;
21564;SDS011;10943;48.738;9.320;2022-07-29T17:00:08;6.72;;;5.10;;
21564;SDS011;10943;48.738;9.320;2022-07-29T17:02:38;6.85;;;4.70;;
21564;SDS011;10943;48.738;9.320;2022-07-29T17:05:08;8.20;;;5.22;;
21564;SDS011;10943;48.738;9.320;2022-07-29T17:07:40;7.00;;;4.90;;
21564;SDS011;10943;48.738;9.320;2022-07-29T17:10:08;7.18;;;5.18;;
21564;SDS011;10943;48.738;9.320;2022-07-29T17:12:41;6.93;;;5.18;;
21564;SDS011;10943;48.738;9.320;2022-07-29T17:15:17;7.35;;;5.05;;
21564;SDS011;10943;48.738;9.320;2022-07-29T17:17:46;7.13;;;5.35;;
21564;SDS011;10943;48.738;9.320;2022-07-29T17:20:22;8.63;;;5.32;;
21564;SDS011;10943;48.738;9.320;2022-07-29T17:22:55;7.85;;;5.45;;
21564;SDS011;10943;48.738;9.320;2022-07-29T17:25:28;6.72;;;5.43;;
21564;SDS011;10943;48.738;9.320;2022-07-29T17:27:59;7.90;;;5.47;;
21564;SDS011;10943;48.738;9.320;2022-07-29T17:33:22;7.60;;;5.60;;